Terminal Aerodrome Forecast
Issued by NWS Hastings, NE

Home | Current Version | Previous Version | Text Only | Print | Product List | Glossary On
Versions: 1 2 3 4 5 6 7 8 9 10 11 12 13 14 15 16 17 18
000
FTUS43 KGID 221720
TAFGRI
TAF
KGRI 221720Z 2218/2318 30016KT P6SM FEW250
     FM230000 34008KT P6SM FEW250
     FM230900 05009KT P6SM SCT015 BKN070
     FM231100 05011G18KT P6SM BKN015
     FM231400 06015G22KT P6SM OVC020=

USA.gov is the U.S. government's official web portal to all federal, state and local government web resources and services.